Time;durP1;ratioP1;P1;durP2;ratioP2;P2;SDS_P1;SDS_P2;PMS_P1;PMS_P2;Temp;Humidity;BMP_temperature;BMP_pressure;BME280_temperature;BME280_humidity;BME280_pressure;Samples;Min_cycle;Max_cycle;Signal;HPM_P1;HPM_P2
2023/01/17 00:01:51;;;;;;;12.20;4.30;;;;;;;1.58;100.00;98302.38;5052121;28;20029;-55
2023/01/17 00:09:53;;;;;;;16.90;4.07;;;;;;;1.42;100.00;98312.94;5056249;28;20083;-56
2023/01/17 00:12:22;;;;;;;12.68;4.22;;;;;;;1.37;100.00;98319.59;5055608;28;20033;-55
2023/01/17 00:14:48;;;;;;;13.35;3.67;;;;;;;1.34;100.00;98322.91;5055818;28;20488;-56
2023/01/17 00:17:13;;;;;;;13.77;4.50;;;;;;;1.30;100.00;98332.16;5056064;28;20104;-55
2023/01/17 01:34:06;;;;;;;9.02;1.75;;;;;;;-0.01;100.00;98450.81;5055043;28;20071;-56
2023/01/17 01:36:32;;;;;;;7.85;1.70;;;;;;;-0.01;100.00;98457.56;5053801;28;20044;-55
2023/01/17 01:38:57;;;;;;;4.25;1.50;;;;;;;0.02;100.00;98462.72;5054717;28;20545;-56
2023/01/17 01:41:22;;;;;;;11.13;2.13;;;;;;;0.03;100.00;98468.66;5054843;28;20033;-56
2023/01/17 01:43:53;;;;;;;6.82;2.17;;;;;;;0.03;100.00;98471.19;5053662;28;20487;-56
2023/01/17 01:46:38;;;;;;;7.82;3.40;;;;;;;0.03;100.00;98474.59;5054638;28;20063;-56
2023/01/17 01:49:20;;;;;;;8.48;4.03;;;;;;;0.04;100.00;98475.44;5054445;28;20023;-56
2023/01/17 01:51:58;;;;;;;10.25;5.13;;;;;;;0.07;100.00;98490.75;5053712;28;20028;-56
2023/01/17 01:54:32;;;;;;;12.13;5.63;;;;;;;0.07;100.00;98493.28;5054400;28;20029;-56
2023/01/17 01:57:02;;;;;;;11.32;6.32;;;;;;;0.11;100.00;98500.16;5053531;28;20028;-56
2023/01/17 01:59:29;;;;;;;14.88;7.60;;;;;;;0.13;100.00;98501.94;5054111;28;20021;-56
2023/01/17 02:01:56;;;;;;;16.73;8.80;;;;;;;0.17;100.00;98507.97;5054273;28;20029;-56
2023/01/17 02:04:24;;;;;;;12.13;9.30;;;;;;;0.17;100.00;98505.44;5053539;28;20104;-56
2023/01/17 02:07:13;;;;;;;19.63;9.57;;;;;;;0.20;100.00;98508.06;5053773;28;20053;-56
2023/01/17 02:09:39;;;;;;;15.35;10.88;;;;;;;0.18;100.00;98503.75;5053573;28;20052;-56
2023/01/17 02:12:06;;;;;;;23.40;11.30;;;;;;;0.17;100.00;98513.03;5053735;28;20061;-55
2023/01/17 02:14:31;;;;;;;18.77;12.15;;;;;;;0.19;100.00;98520.69;5053808;28;20121;-56
2023/01/17 02:17:06;;;;;;;16.95;13.20;;;;;;;0.21;100.00;98521.59;5053622;28;20453;-56
2023/01/17 02:19:50;;;;;;;23.90;14.30;;;;;;;0.22;100.00;98516.59;5053358;28;20037;-56
2023/01/17 02:22:49;;;;;;;23.50;14.75;;;;;;;0.24;100.00;98520.03;5053700;28;20427;-56
2023/01/17 02:25:17;;;;;;;22.85;15.55;;;;;;;0.27;100.00;98534.47;5053219;28;20078;-56
2023/01/17 02:28:10;;;;;;;22.85;16.83;;;;;;;0.24;100.00;98534.38;5053487;28;20068;-56
2023/01/17 02:30:37;;;;;;;17.98;11.75;;;;;;;0.12;100.00;98524.69;5053432;28;20154;-56
2023/01/17 02:33:27;;;;;;;17.95;9.43;;;;;;;0.17;100.00;98530.78;5052954;28;20067;-56
2023/01/17 02:36:07;;;;;;;16.95;8.35;;;;;;;0.21;100.00;98527.53;5053563;28;20028;-56
2023/01/17 02:38:48;;;;;;;14.75;6.50;;;;;;;0.22;100.00;98526.72;5053098;28;20021;-56
2023/01/17 02:41:21;;;;;;;16.10;6.65;;;;;;;0.22;100.00;98521.66;5054005;28;20021;-56
2023/01/17 02:43:50;;;;;;;13.77;6.13;;;;;;;0.19;100.00;98516.47;5053229;28;20021;-56
2023/01/17 02:46:16;;;;;;;21.35;7.00;;;;;;;0.15;100.00;98518.03;5052716;28;20024;-56
2023/01/17 02:48:42;;;;;;;17.23;5.65;;;;;;;0.12;100.00;98524.69;5052949;28;20384;-56
2023/01/17 02:51:20;;;;;;;11.48;5.32;;;;;;;0.10;100.00;98526.31;5053102;28;20025;-56
2023/01/17 02:54:12;;;;;;;14.13;5.32;;;;;;;0.09;100.00;98522.03;5052214;28;20464;-56
2023/01/17 02:56:43;;;;;;;11.98;5.07;;;;;;;-0.01;100.00;98520.88;5052980;28;20055;-56
2023/01/17 02:59:23;;;;;;;10.95;5.47;;;;;;;-0.07;100.00;98524.03;5052891;28;20029;-56
2023/01/17 03:02:03;;;;;;;14.65;5.88;;;;;;;-0.13;100.00;98523.88;5052182;28;20033;-55
2023/01/17 03:04:47;;;;;;;12.35;5.35;;;;;;;-0.20;100.00;98532.03;5053048;28;20033;-56
2023/01/17 03:07:17;;;;;;;12.15;5.53;;;;;;;-0.32;100.00;98532.47;5052039;28;20450;-56
2023/01/17 03:09:46;;;;;;;11.80;5.57;;;;;;;-0.34;100.00;98536.59;5052768;28;20028;-56
2023/01/17 03:12:12;;;;;;;9.70;5.28;;;;;;;-0.40;100.00;98539.78;5052882;28;20545;-56
2023/01/17 03:14:37;;;;;;;9.55;4.35;;;;;;;-0.43;100.00;98544.72;5051876;28;20024;-56
2023/01/17 03:17:03;;;;;;;9.40;3.22;;;;;;;-0.46;100.00;98542.09;5053005;28;20017;-55
2023/01/17 03:19:30;;;;;;;10.82;3.40;;;;;;;-0.51;100.00;98551.19;5052522;28;20040;-56
2023/01/17 03:21:55;;;;;;;9.45;3.10;;;;;;;-0.54;100.00;98556.16;5052111;28;20024;-56
2023/01/17 03:24:21;;;;;;;9.35;2.83;;;;;;;-0.56;100.00;98555.22;5052965;28;20387;-56
2023/01/17 03:26:46;;;;;;;10.43;2.53;;;;;;;-0.62;100.00;98557.50;5052472;28;20372;-56
2023/01/17 03:29:12;;;;;;;11.48;2.60;;;;;;;-0.62;100.00;98560.03;5052274;28;20025;-56
2023/01/17 03:31:38;;;;;;;8.25;2.20;;;;;;;-0.65;100.00;98554.88;5052475;28;20465;-56
2023/01/17 03:34:03;;;;;;;8.23;2.00;;;;;;;-0.70;100.00;98559.75;5052653;28;20074;-56
2023/01/17 03:36:28;;;;;;;11.10;2.20;;;;;;;-0.73;100.00;98565.56;5051963;28;20116;-56
2023/01/17 03:38:53;;;;;;;13.38;2.33;;;;;;;-0.79;100.00;98555.22;5052798;28;20392;-56
2023/01/17 03:41:19;;;;;;;8.50;2.50;;;;;;;-0.82;100.00;98565.22;5053374;28;20029;-54
2023/01/17 03:43:44;;;;;;;9.90;2.58;;;;;;;-0.86;100.00;98555.81;5056212;28;20542;-56
2023/01/17 03:46:24;;;;;;;13.77;3.10;;;;;;;-0.86;100.00;98563.38;5056956;28;20028;-55
2023/01/17 03:48:50;;;;;;;14.13;3.08;;;;;;;-0.88;100.00;98564.97;5056405;28;20024;-56
2023/01/17 03:51:15;;;;;;;26.70;3.40;;;;;;;-0.90;100.00;98564.94;5056250;28;20071;-56
2023/01/17 03:53:42;;;;;;;11.20;3.55;;;;;;;-0.90;100.00;98561.56;5056286;28;20024;-56
2023/01/17 03:56:07;;;;;;;10.10;3.50;;;;;;;-0.92;100.00;98563.16;5056013;28;20112;-56
2023/01/17 03:58:33;;;;;;;11.40;4.00;;;;;;;-0.96;100.00;98563.84;5056123;28;20113;-56
2023/01/17 04:00:58;;;;;;;4.88;1.73;;;;;;;-0.89;100.00;98558.19;5056360;28;20102;-56
2023/01/17 04:03:23;;;;;;;15.88;4.20;;;;;;;-0.93;100.00;98563.94;5055715;28;20044;-56
2023/01/17 04:05:49;;;;;;;11.60;3.95;;;;;;;-0.91;100.00;98575.00;5056025;28;20112;-56
2023/01/17 04:08:14;;;;;;;19.25;4.25;;;;;;;-0.92;100.00;98565.66;5056131;28;20555;-56
2023/01/17 04:10:39;;;;;;;16.85;4.65;;;;;;;-0.90;100.00;98566.59;5055474;28;20534;-56
2023/01/17 04:13:04;;;;;;;15.55;4.80;;;;;;;-0.89;100.00;98568.31;5056373;28;20025;-56
2023/01/17 04:15:30;;;;;;;13.27;4.70;;;;;;;-0.89;100.00;98565.78;5056027;28;20422;-56
2023/01/17 04:17:55;;;;;;;13.90;4.60;;;;;;;-0.87;100.00;98576.81;5055471;28;20036;-56
2023/01/17 04:20:47;;;;;;;13.65;5.07;;;;;;;-0.82;100.00;98580.41;5056558;28;20025;-56
2023/01/17 04:23:12;;;;;;;17.73;4.90;;;;;;;-0.82;100.00;98582.94;5054829;28;20623;-56
2023/01/17 04:25:38;;;;;;;15.95;5.05;;;;;;;-0.80;100.00;98578.81;5055250;28;20116;-56
2023/01/17 04:28:03;;;;;;;14.80;5.53;;;;;;;-0.77;100.00;98581.44;5056261;28;20130;-56
2023/01/17 04:30:29;;;;;;;16.23;5.32;;;;;;;-0.78;100.00;98581.38;5055469;28;20128;-56
2023/01/17 04:32:55;;;;;;;19.95;4.80;;;;;;;-0.78;100.00;98574.66;5055233;28;20484;-56
2023/01/17 04:35:20;;;;;;;14.00;4.70;;;;;;;-0.80;100.00;98586.38;5055767;28;20036;-56
2023/01/17 04:37:46;;;;;;;15.93;5.10;;;;;;;-0.82;100.00;98580.41;5055235;28;20353;-56
2023/01/17 04:40:12;;;;;;;11.55;4.43;;;;;;;-0.87;100.00;98580.22;5055308;28;20033;-56
2023/01/17 04:42:37;;;;;;;13.32;4.85;;;;;;;-0.86;100.00;98581.09;5055645;28;20017;-56
2023/01/17 04:45:03;;;;;;;6.82;2.10;;;;;;;-0.84;100.00;98576.94;5055582;28;20114;-56
2023/01/17 04:47:29;;;;;;;12.15;5.13;;;;;;;-0.94;100.00;98577.38;5054806;28;20529;-57
2023/01/17 04:49:54;;;;;;;19.90;6.15;;;;;;;-0.96;100.00;98577.31;5055657;28;20061;-56
2023/01/17 04:52:20;;;;;;;18.95;6.43;;;;;;;-1.00;100.00;98572.97;5053914;28;20025;-56
2023/01/17 04:54:48;;;;;;;15.30;6.47;;;;;;;-1.05;100.00;98582.88;5054694;28;20021;-56
2023/01/17 04:57:14;;;;;;;;;;;;;;;-0.97;100.00;98587.38;5056006;28;20120;-56
2023/01/17 04:59:39;;;;;;;21.23;7.40;;;;;;;-1.07;100.00;98579.44;5054405;28;20443;-56
2023/01/17 05:02:04;;;;;;;23.05;8.23;;;;;;;-1.06;100.00;98596.34;5055252;28;20032;-56
2023/01/17 05:04:30;;;;;;;28.80;8.57;;;;;;;-1.07;100.00;98594.63;5054916;28;20017;-56
2023/01/17 05:06:55;;;;;;;29.95;9.05;;;;;;;-1.09;100.00;98590.31;5054516;28;20493;-56
2023/01/17 05:09:20;;;;;;;25.25;10.02;;;;;;;-1.10;100.00;98593.63;5055405;28;20025;-56
2023/01/17 05:11:45;;;;;;;24.40;9.95;;;;;;;-1.13;100.00;98585.94;5054936;28;20431;-56
2023/01/17 05:14:11;;;;;;;30.88;10.80;;;;;;;-1.17;100.00;98582.41;5054515;28;20542;-56
2023/01/17 05:16:36;;;;;;;26.75;11.23;;;;;;;-1.17;100.00;98587.47;5054903;28;20025;-54
2023/01/17 05:19:01;;;;;;;35.75;13.05;;;;;;;-1.20;100.00;98587.34;5054971;28;20426;-56
2023/01/17 05:21:26;;;;;;;36.50;14.77;;;;;;;-1.20;100.00;98593.28;5054195;28;20017;-56
2023/01/17 05:23:52;;;;;;;36.28;15.05;;;;;;;-1.21;100.00;98588.16;5054820;28;20130;-56
2023/01/17 05:26:18;;;;;;;41.03;15.75;;;;;;;-1.20;100.00;98594.91;5054952;28;20052;-56
2023/01/17 05:28:43;;;;;;;40.58;18.58;;;;;;;-1.23;100.00;98587.22;5054117;28;20055;-56
2023/01/17 05:31:08;;;;;;;44.63;19.50;;;;;;;-1.23;100.00;98587.22;5054735;28;20025;-56
2023/01/17 05:33:33;;;;;;;49.53;20.90;;;;;;;-1.23;100.00;98593.13;5054185;28;20044;-56
2023/01/17 05:35:59;;;;;;;46.10;21.17;;;;;;;-1.25;100.00;98593.88;5054224;28;20056;-56
2023/01/17 05:38:24;;;;;;;50.47;20.88;;;;;;;-1.28;100.00;98593.75;5054640;28;20013;-56
2023/01/17 05:40:49;;;;;;;56.63;24.20;;;;;;;-1.29;100.00;98589.50;5054174;28;20033;-56
2023/01/17 05:43:15;;;;;;;61.28;25.00;;;;;;;-1.30;100.00;98590.28;5054109;28;20044;-56
2023/01/17 05:45:40;;;;;;;57.78;25.40;;;;;;;-1.33;100.00;98596.97;5054455;28;20033;-56
2023/01/17 05:48:06;;;;;;;51.42;24.98;;;;;;;-1.36;100.00;98596.81;5054266;28;20053;-56
2023/01/17 05:50:36;;;;;;;57.88;27.02;;;;;;;-1.38;100.00;98605.16;5053587;28;20476;-56
2023/01/17 05:53:05;;;;;;;67.15;26.10;;;;;;;-1.38;100.00;98608.56;5054548;28;20032;-56
2023/01/17 05:55:31;;;;;;;53.65;24.55;;;;;;;-1.41;100.00;98599.97;5054027;28;20032;-56
2023/01/17 05:57:57;;;;;;;57.95;25.10;;;;;;;-1.40;100.00;98606.75;5053832;28;20032;-56
2023/01/17 06:00:23;;;;;;;55.63;24.63;;;;;;;-1.40;100.00;98610.13;5054199;28;20033;-55
2023/01/17 06:02:48;;;;;;;56.78;24.40;;;;;;;-1.40;100.00;98610.13;5053064;28;20147;-56
2023/01/17 06:05:14;;;;;;;60.08;25.60;;;;;;;-1.38;100.00;98618.66;5053854;28;20025;-56
2023/01/17 06:07:43;;;;;;;56.50;23.90;;;;;;;-1.34;100.00;98625.56;5053545;28;20051;-56
2023/01/17 06:10:09;;;;;;;61.92;26.05;;;;;;;-1.36;100.00;98614.50;5053320;28;20477;-56
2023/01/17 06:12:35;;;;;;;60.67;25.95;;;;;;;-1.38;100.00;98618.66;5053629;28;20029;-56
2023/01/17 06:15:01;;;;;;;64.82;28.40;;;;;;;-1.37;100.00;98620.41;5053871;28;20021;-56
2023/01/17 06:17:26;;;;;;;56.92;28.60;;;;;;;-1.41;100.00;98621.03;5053020;28;20120;-56
2023/01/17 06:19:51;;;;;;;70.72;33.28;;;;;;;-1.39;100.00;98624.50;5053755;28;20579;-56
2023/01/17 06:22:16;;;;;;;63.72;33.63;;;;;;;-1.40;100.00;98616.88;5053754;28;20032;-56
2023/01/17 06:24:42;;;;;;;76.90;37.92;;;;;;;-1.39;100.00;98616.06;5053049;28;20082;-56
2023/01/17 06:27:09;;;;;;;69.75;35.83;;;;;;;-1.45;100.00;98625.94;5053767;28;20017;-56
2023/01/17 06:29:34;;;;;;;72.68;37.95;;;;;;;-1.46;100.00;98625.03;5053416;28;20025;-56
2023/01/17 06:31:59;;;;;;;78.13;37.95;;;;;;;-1.50;100.00;98623.19;5053093;28;20032;-55
2023/01/17 06:34:25;;;;;;;73.60;37.10;;;;;;;-1.55;100.00;98624.66;5053790;28;20483;-56
2023/01/17 06:36:50;;;;;;;82.18;39.38;;;;;;;-1.58;100.00;98625.41;5052957;28;20033;-56
2023/01/17 06:39:15;;;;;;;74.47;37.72;;;;;;;-1.60;100.00;98632.06;5053028;28;20472;-56
2023/01/17 06:41:41;;;;;;;57.22;15.63;;;;;;;-1.56;100.00;98635.56;5053343;28;20025;-56
2023/01/17 06:44:08;;;;;;;79.60;41.85;;;;;;;-1.60;100.00;98636.25;5053183;28;20436;-56
2023/01/17 06:46:33;;;;;;;84.65;41.60;;;;;;;-1.61;100.00;98629.44;5052493;28;20033;-56
2023/01/17 06:48:59;;;;;;;87.35;41.25;;;;;;;-1.69;100.00;98637.59;5053520;28;20024;-56
2023/01/17 06:51:24;;;;;;;83.45;41.47;;;;;;;-1.74;100.00;98635.66;5053163;28;20064;-56
2023/01/17 06:53:49;;;;;;;81.40;41.75;;;;;;;-1.73;100.00;98639.91;5052542;28;20384;-56
2023/01/17 06:56:15;;;;;;;86.18;43.67;;;;;;;-1.75;100.00;98641.53;5053285;28;20098;-56
2023/01/17 06:58:40;;;;;;;88.45;42.58;;;;;;;-1.79;100.00;98635.47;5052620;28;20086;-56
2023/01/17 07:01:10;;;;;;;80.57;41.72;;;;;;;-1.82;100.00;98645.44;5052428;28;20033;-56
2023/01/17 07:03:36;;;;;;;85.05;44.90;;;;;;;-1.80;100.00;98641.31;5052683;28;20021;-56
2023/01/17 07:06:02;;;;;;;90.82;44.78;;;;;;;-1.83;100.00;98643.72;5052506;28;20036;-56
2023/01/17 07:08:28;;;;;;;85.35;44.30;;;;;;;-1.83;100.00;98643.72;5052529;28;20041;-56
2023/01/17 07:10:59;;;;;;;80.50;43.42;;;;;;;-1.90;100.00;98645.13;5052915;28;20110;-56
2023/01/17 07:13:25;;;;;;;86.75;44.80;;;;;;;-1.93;100.00;98642.44;5052154;28;20162;-56
2023/01/17 07:15:52;;;;;;;85.23;43.90;;;;;;;-1.94;100.00;98639.84;5051655;28;20128;-56
2023/01/17 07:18:22;;;;;;;92.60;44.60;;;;;;;-1.97;100.00;98639.72;5052968;28;20112;-55
2023/01/17 07:20:50;;;;;;;81.88;44.00;;;;;;;-2.00;100.00;98651.41;5051927;28;20321;-56
2023/01/17 07:23:17;;;;;;;91.68;44.17;;;;;;;-2.00;100.00;98646.38;5052846;28;20036;-56
2023/01/17 07:25:42;;;;;;;88.97;44.75;;;;;;;-2.01;100.00;98643.78;5052353;28;20021;-56
2023/01/17 07:28:08;;;;;;;89.55;46.45;;;;;;;-2.06;100.00;98651.13;5052170;28;20031;-56
2023/01/17 07:30:34;;;;;;;87.18;44.00;;;;;;;-2.08;100.00;98656.91;5052641;28;20370;-56
2023/01/17 07:33:00;;;;;;;36.00;14.52;;;;;;;-2.00;100.00;98660.66;5052270;28;20090;-56
2023/01/17 07:35:25;;;;;;;90.00;44.65;;;;;;;-2.06;100.00;98660.38;5052168;28;20024;-56
2023/01/17 07:37:51;;;;;;;87.85;44.92;;;;;;;-2.07;100.00;98659.50;5052363;28;20025;-56
2023/01/17 07:40:17;;;;;;;88.40;43.72;;;;;;;-2.06;100.00;98661.22;5052360;28;20033;-56
2023/01/17 07:42:43;;;;;;;90.00;44.63;;;;;;;-2.12;100.00;98650.84;5052009;28;20025;-56
2023/01/17 07:45:10;;;;;;;91.63;46.65;;;;;;;-2.07;100.00;98659.50;5052481;28;20104;-56
2023/01/17 07:47:35;;;;;;;89.72;46.80;;;;;;;-2.08;100.00;98667.88;5052174;28;20083;-56
2023/01/17 07:50:01;;;;;;;84.95;44.80;;;;;;;-2.10;100.00;98674.50;5052206;28;20025;-56
2023/01/17 07:52:27;;;;;;;87.97;43.72;;;;;;;-2.08;100.00;98667.88;5052545;28;20029;-56
2023/01/17 07:54:52;;;;;;;87.18;43.67;;;;;;;-2.09;100.00;98671.19;5052190;28;20023;-56
2023/01/17 07:57:17;;;;;;;93.70;44.33;;;;;;;-2.06;100.00;98670.47;5052042;28;20048;-56
2023/01/17 07:59:43;;;;;;;86.97;45.15;;;;;;;-2.06;100.00;98676.38;5052208;28;20349;-56
2023/01/17 08:02:26;;;;;;;91.97;45.38;;;;;;;-2.03;100.00;98680.69;5052282;28;20465;-56
2023/01/17 08:04:52;;;;;;;91.10;45.20;;;;;;;-2.01;100.00;98674.06;5052166;28;20534;-56
2023/01/17 08:07:17;;;;;;;89.55;45.25;;;;;;;-2.02;100.00;98670.66;5052089;28;20049;-56
2023/01/17 08:09:43;;;;;;;90.03;46.47;;;;;;;-2.02;100.00;98673.19;5051385;28;20033;-56
2023/01/17 08:12:09;;;;;;;94.00;45.90;;;;;;;-2.04;100.00;98669.75;5052217;28;20032;-56
2023/01/17 08:14:35;;;;;;;99.78;46.45;;;;;;;-2.01;100.00;98664.81;5051857;28;20025;-56
2023/01/17 08:17:09;;;;;;;87.45;44.55;;;;;;;-1.99;100.00;98663.25;5051821;28;20021;-56
2023/01/17 08:19:34;;;;;;;102.00;47.13;;;;;;;-1.92;100.00;98663.53;5051969;28;20052;-56
2023/01/17 08:22:00;;;;;;;90.18;46.42;;;;;;;-1.92;100.00;98674.47;5052029;28;20381;-56
2023/01/17 08:24:25;;;;;;;93.25;47.10;;;;;;;-1.88;100.00;98676.31;5051704;28;20017;-56
2023/01/17 08:26:53;;;;;;;101.40;45.53;;;;;;;-1.86;100.00;98683.97;5052017;28;20124;-56
2023/01/17 08:29:19;;;;;;;87.07;43.88;;;;;;;-1.85;100.00;98675.59;5055854;28;20056;-56
2023/01/17 08:31:44;;;;;;;93.93;45.88;;;;;;;-1.83;100.00;98679.06;5055221;28;20033;-56
2023/01/17 08:34:09;;;;;;;95.32;47.20;;;;;;;-1.81;100.00;98672.41;5055845;28;20029;-56
2023/01/17 08:36:35;;;;;;;84.10;44.72;;;;;;;-1.78;100.00;98681.78;5054978;28;20017;-56
2023/01/17 08:39:00;;;;;;;90.03;45.72;;;;;;;-1.75;100.00;98681.94;5055123;28;20029;-57
2023/01/17 08:41:28;;;;;;;92.30;45.28;;;;;;;-1.76;100.00;98676.00;5055131;28;20017;-56
2023/01/17 08:43:53;;;;;;;;;;;;;;;-1.69;100.00;98683.06;5055610;28;20024;-56
2023/01/17 08:46:18;;;;;;;96.07;45.08;;;;;;;-1.70;100.00;98676.25;5055198;28;19916;-56
2023/01/17 08:48:44;;;;;;;91.22;47.17;;;;;;;-1.67;100.00;98678.06;5054863;28;20417;-56
2023/01/17 08:51:10;;;;;;;101.40;45.30;;;;;;;-1.67;100.00;98688.16;5055101;28;20037;-56
2023/01/17 08:53:36;;;;;;;82.18;44.35;;;;;;;-1.65;100.00;98684.06;5054398;28;20028;-56
2023/01/17 08:56:03;;;;;;;86.97;45.08;;;;;;;-1.63;100.00;98689.16;5055514;28;20028;-56
2023/01/17 08:58:29;;;;;;;48.50;18.37;;;;;;;-1.57;100.00;98682.72;5054343;28;20032;-56
2023/01/17 09:01:02;;;;;;;91.60;46.97;;;;;;;-1.58;100.00;98690.22;5055402;28;20337;-56
2023/01/17 09:03:28;;;;;;;102.68;48.20;;;;;;;-1.53;100.00;98684.56;5054885;28;20469;-56
2023/01/17 09:06:11;;;;;;;52.33;17.58;;;;;;;-1.47;100.00;98693.19;5054493;28;20029;-56
2023/01/17 09:08:37;;;;;;;85.70;44.78;;;;;;;-1.56;100.00;98689.50;5054802;28;20186;-56
2023/01/17 09:11:08;;;;;;;90.78;45.55;;;;;;;-1.54;100.00;98690.41;5054981;28;20029;-56
2023/01/17 09:13:34;;;;;;;88.90;45.17;;;;;;;-1.47;100.00;98700.78;5054376;28;20028;-57
2023/01/17 09:16:00;;;;;;;94.35;46.30;;;;;;;-1.44;100.00;98698.41;5055000;28;20134;-57
2023/01/17 09:18:27;;;;;;;81.43;45.45;;;;;;;-1.39;100.00;98702.84;5054814;28;20031;-56
2023/01/17 09:20:54;;;;;;;94.93;46.90;;;;;;;-1.33;100.00;98707.28;5054324;28;20029;-57
2023/01/17 09:23:24;;;;;;;48.28;17.70;;;;;;;-1.25;100.00;98708.47;5055116;28;20025;-54
2023/01/17 09:25:57;;;;;;;83.68;46.60;;;;;;;-1.17;100.00;98714.72;5054381;28;20028;-55
2023/01/17 09:28:24;;;;;;;79.45;44.88;;;;;;;-1.08;100.00;98709.19;5054432;28;20029;-55
2023/01/17 09:30:50;;;;;;;82.78;43.67;;;;;;;-1.01;100.00;98700.19;5054547;28;20033;-56
2023/01/17 09:33:16;;;;;;;72.15;41.42;;;;;;;-0.96;100.00;98708.81;5054411;28;20032;-56
2023/01/17 09:35:42;;;;;;;81.60;43.55;;;;;;;-0.90;100.00;98706.53;5053918;28;20024;-55
2023/01/17 09:38:07;;;;;;;81.32;41.03;;;;;;;-0.88;100.00;98704.06;5054569;28;20033;-56
2023/01/17 09:40:34;;;;;;;78.20;41.72;;;;;;;-0.78;100.00;98708.69;5053037;28;20025;-55
2023/01/17 09:43:04;;;;;;;78.83;41.00;;;;;;;-0.70;100.00;98707.34;5053887;28;20041;-56
2023/01/17 09:45:32;;;;;;;73.47;40.92;;;;;;;-0.59;100.00;98709.44;5054113;28;20634;-55
2023/01/17 09:48:00;;;;;;;77.38;42.75;;;;;;;-0.47;100.00;98712.44;5053546;28;20079;-55
2023/01/17 09:50:51;;;;;;;77.15;39.55;;;;;;;-0.35;100.00;98715.47;5054582;28;20063;-56
2023/01/17 09:53:21;;;;;;;77.57;41.67;;;;;;;-0.19;100.00;98718.56;5054343;28;20025;-56
2023/01/17 09:55:59;;;;;;;74.80;39.30;;;;;;;-0.03;100.00;98712.41;5053641;28;20025;-56
2023/01/17 09:58:38;;;;;;;69.72;37.90;;;;;;;0.06;100.00;98722.03;5054109;28;20036;-56
2023/01/17 10:01:16;;;;;;;68.70;34.38;;;;;;;0.11;100.00;98723.06;5054079;28;20044;-55
2023/01/17 10:03:41;;;;;;;63.58;33.15;;;;;;;0.22;100.00;98726.84;5053416;28;20029;-56
2023/01/17 10:06:41;;;;;;;70.13;36.60;;;;;;;0.55;100.00;98718.72;5054111;28;20033;-57
2023/01/17 10:09:47;;;;;;;60.50;32.70;;;;;;;0.73;100.00;98735.41;5053511;28;20103;-54
2023/01/17 10:12:17;;;;;;;48.97;27.50;;;;;;;0.70;100.00;98732.72;5054099;28;20090;-54
2023/01/17 10:15:09;;;;;;;56.40;28.00;;;;;;;0.73;100.00;98737.94;5053409;28;20537;-55
2023/01/17 10:18:04;;;;;;;52.92;28.70;;;;;;;0.81;100.00;98737.41;5053276;28;20028;-55
2023/01/17 10:20:40;;;;;;;52.60;27.73;;;;;;;0.86;100.00;98729.94;5053458;28;20427;-55
2023/01/17 10:23:08;;;;;;;57.17;28.43;;;;;;;0.85;100.00;98735.81;5053021;28;20494;-54
2023/01/17 10:25:51;;;;;;;52.03;28.75;;;;;;;1.06;100.00;98729.72;5053566;28;20033;-56
2023/01/17 10:28:45;;;;;;;52.20;27.10;;;;;;;1.10;100.00;98729.03;5053554;28;20075;-56
2023/01/17 10:31:43;;;;;;;49.15;26.05;;;;;;;1.12;100.00;98732.47;5053181;28;20021;-56
2023/01/17 10:34:12;;;;;;;48.53;26.35;;;;;;;1.09;100.00;98719.69;5051419;28;20495;-56
2023/01/17 10:36:41;;;;;;;45.00;24.65;;;;;;;1.20;100.00;98731.06;5053216;28;20012;-56
2023/01/17 10:39:22;;;;;;;49.25;25.67;;;;;;;1.31;100.00;98724.66;5053007;28;20021;-56
2023/01/17 10:41:58;;;;;;;45.80;24.83;;;;;;;1.34;100.00;98725.56;5053237;28;20040;-56
2023/01/17 10:44:36;;;;;;;46.67;24.73;;;;;;;1.57;100.00;98731.38;5053068;28;20087;-55
2023/01/17 10:47:10;;;;;;;46.38;21.58;;;;;;;1.60;100.00;98739.97;5053525;28;20033;-56
2023/01/17 10:49:45;;;;;;;39.30;21.52;;;;;;;1.56;100.00;98740.69;5052798;28;20507;-56
2023/01/17 10:52:28;;;;;;;43.78;22.65;;;;;;;1.68;100.00;98744.41;5052804;28;20119;-56
2023/01/17 10:55:02;;;;;;;40.83;23.20;;;;;;;1.84;100.00;98741.53;5053809;28;20033;-56
2023/01/17 10:57:31;;;;;;;41.83;22.08;;;;;;;2.05;100.00;98738.75;5052907;28;20037;-56
2023/01/17 10:59:59;;;;;;;46.85;21.55;;;;;;;2.44;100.00;98734.78;5052570;28;20078;-56
2023/01/17 11:02:30;;;;;;;39.78;20.15;;;;;;;2.71;100.00;98733.81;5053190;28;20025;-56
2023/01/17 11:04:59;;;;;;;34.70;19.70;;;;;;;2.95;99.30;98723.44;5052802;28;20033;-56
2023/01/17 11:07:27;;;;;;;34.70;18.33;;;;;;;3.40;96.88;98727.94;5052129;28;20053;-56
2023/01/17 11:09:55;;;;;;;33.83;16.98;;;;;;;3.81;93.88;98724.66;5053180;28;20036;-56
2023/01/17 11:12:36;;;;;;;31.20;16.83;;;;;;;3.84;90.57;98718.75;5052570;28;20029;-56
2023/01/17 11:15:04;;;;;;;28.92;17.02;;;;;;;3.73;88.57;98710.84;5052880;28;20499;-55
2023/01/17 11:17:30;;;;;;;36.70;18.67;;;;;;;3.53;89.54;98718.91;5052354;28;20028;-56
2023/01/17 11:20:07;;;;;;;36.25;18.65;;;;;;;3.53;89.09;98718.91;5052451;28;20033;-56
2023/01/17 11:22:34;;;;;;;30.25;16.02;;;;;;;3.46;92.11;98717.91;5052535;28;20025;-56
2023/01/17 11:25:00;;;;;;;34.22;16.30;;;;;;;3.68;90.44;98714.97;5052674;28;20021;-56
2023/01/17 11:27:32;;;;;;;29.40;13.75;;;;;;;3.87;87.33;98719.66;5052288;28;20075;-56
2023/01/17 11:30:18;;;;;;;26.42;12.88;;;;;;;4.19;87.71;98716.94;5052634;28;20049;-56
2023/01/17 11:32:52;;;;;;;25.57;14.03;;;;;;;4.26;85.37;98711.16;5052390;28;20065;-56
2023/01/17 11:35:26;;;;;;;23.05;12.93;;;;;;;4.01;82.87;98714.88;5052341;28;20021;-57
2023/01/17 11:38:00;;;;;;;24.13;12.65;;;;;;;4.11;84.66;98708.28;5052487;28;20029;-56
2023/01/17 11:40:37;;;;;;;27.25;13.15;;;;;;;4.07;85.82;98706.50;5052061;28;20106;-57
2023/01/17 11:43:19;;;;;;;33.05;15.05;;;;;;;4.13;85.12;98704.06;5052815;28;20033;-56
2023/01/17 11:45:58;;;;;;;27.50;15.10;;;;;;;3.99;85.49;98702.91;5052153;28;20057;-57
2023/01/17 11:48:23;;;;;;;24.67;12.98;;;;;;;3.92;82.28;98702.78;5052090;28;20025;-57
2023/01/17 11:50:59;;;;;;;23.27;13.25;;;;;;;4.04;84.82;98704.75;5052282;28;20032;-56
2023/01/17 11:53:37;;;;;;;58.00;31.08;;;;;;;4.01;85.04;98701.28;5052440;28;20025;-56
2023/01/17 11:56:07;;;;;;;24.50;12.10;;;;;;;3.83;84.07;98701.75;5052113;28;20028;-57
2023/01/17 11:58:36;;;;;;;20.48;10.73;;;;;;;3.53;81.98;98705.31;5052248;28;20473;-57
2023/01/17 12:01:07;;;;;;;21.73;11.25;;;;;;;3.46;82.11;98707.72;5052063;28;20037;-57
2023/01/17 12:03:46;;;;;;;22.73;10.77;;;;;;;3.46;83.84;98705.16;5054703;28;20025;-56
2023/01/17 12:06:34;;;;;;;21.77;11.02;;;;;;;3.52;83.12;98694.25;5056251;28;20546;-57
2023/01/17 12:09:34;;;;;;;21.00;11.68;;;;;;;3.52;87.87;98693.41;5056019;28;20048;-57
2023/01/17 12:15:13;;;;;;;32.20;13.60;;;;;;;3.42;84.13;98694.88;5056250;28;20043;-57
2023/01/17 12:17:44;;;;;;;22.65;13.75;;;;;;;3.50;83.10;98693.38;5055447;28;20031;-56
2023/01/17 12:20:26;;;;;;;22.95;11.50;;;;;;;3.52;81.64;98696.81;5055781;28;20033;-56
2023/01/17 12:23:01;;;;;;;16.80;9.90;;;;;;;3.45;80.57;98697.50;5055434;28;20040;-57
2023/01/17 12:25:57;;;;;;;19.42;10.10;;;;;;;3.45;80.45;98700.06;5056200;28;20017;-57
2023/01/17 12:28:53;;;;;;;26.45;12.70;;;;;;;3.40;80.70;98692.28;5055752;28;20033;-56
2023/01/17 12:31:32;;;;;;;17.35;9.20;;;;;;;3.37;81.59;98687.13;5055300;28;20357;-57
2023/01/17 12:34:16;;;;;;;21.30;9.63;;;;;;;3.39;79.31;98690.56;5055938;28;20029;-56
2023/01/17 12:36:56;;;;;;;15.68;7.88;;;;;;;3.27;77.35;98686.03;5054840;28;20025;-57
2023/01/17 12:39:29;;;;;;;13.70;7.25;;;;;;;3.27;77.74;98688.59;5056003;28;20086;-57
2023/01/17 12:42:04;;;;;;;16.60;7.10;;;;;;;3.39;78.84;98687.16;5055832;28;20116;-56
2023/01/17 12:45:10;;;;;;;14.05;5.50;;;;;;;3.49;78.91;98681.47;5054997;28;20039;-56
2023/01/17 12:47:42;;;;;;;14.90;6.35;;;;;;;3.49;75.65;98681.47;5055551;28;20043;-56
2023/01/17 12:50:27;;;;;;;16.65;7.65;;;;;;;3.65;78.34;98681.81;5055616;28;20028;-56
2023/01/17 12:53:01;;;;;;;15.57;7.28;;;;;;;3.58;75.96;98686.75;5054686;28;20491;-56
2023/01/17 12:55:38;;;;;;;13.30;7.20;;;;;;;3.76;74.60;98686.31;5055214;28;20029;-56